Aviation Digital Data Service (ADDS)

Output produced by METARs form (2255 UTC 18 December 2018)
found at http://aviationweather.gov/metar/data/
 
METAR text: EDTY 181850Z 11007KT 080V140 7000 FEW006 01/01 Q1020
Conditions at: EDTY (SCHWAEBISCH HALL, DE) observed 1850 UTC 18 December 2018
Temperature: 1.0°C (34°F)
Dewpoint: 1.0°C (34°F) [RH = 100%]
Pressure (altimeter): 30.12 inches Hg (1020.0 mb)
Winds: from the ESE (110 degrees) at 8 MPH (7 knots; 3.6 m/s)
Visibility: 4 miles ( 7 km)
Ceiling: at least 12,000 feet AGL
Clouds: few clouds at 600 feet AGL
Weather: no significant weather observed at this time

Forecast for: EDTY (SCHWAEBISCH HALL, DE)
Text: TAF EDTY 181700Z 1818/1903 10005KT 6000 BKN012
Forecast period: 1800 UTC 18 December 2018 to 0300 UTC 19 December 2018
Forecast type: FROM: standard forecast or significant change
Winds: from the E (100 degrees) at 6 MPH (5 knots; 2.6 m/s)
Visibility: 4 miles (6 km)
Ceiling: 1200 feet AGL
Clouds: broken clouds at 1200 feet AGL
Weather: no significant weather forecast for this period
Text: TEMPO 1818/1903 4000 BR BKN004
Forecast period: 1800 UTC 18 December 2018 to 0300 UTC 19 December 2018
Forecast type: TEMPORARY: The following changes expected for less than half the time period
Visibility: 2.49 miles (4.01 km)
Ceiling: 400 feet AGL
Clouds: broken clouds at 400 feet AGL
Weather: BR  (mist)